PDT,Max TemperatureF,Mean TemperatureF,Min TemperatureF,Max Dew PointF,MeanDew PointF,Min DewpointF,Max Humidity, Mean Humidity, Min Humidity, Max Sea Level PressureIn, Mean Sea Level PressureIn, Min Sea Level PressureIn, Max VisibilityMiles, Mean VisibilityMiles, Min VisibilityMiles, Max Wind SpeedMPH, Mean Wind SpeedMPH, Max Gust SpeedMPH,PrecipitationIn, CloudCover, Events, WindDirDegrees
2012-9-1,98,80,64,37,30,18,31,18,6,29.92,29.85,29.79,10,10,10,15,8,25,0.00,0,,183
2012-9-2,98,78,60,35,25,7,31,17,4,29.95,29.88,29.81,10,10,10,15,6,17,0.00,0,,179
2012-9-3,102,81,62,37,28,15,30,16,5,29.96,29.90,29.83,10,10,10,15,5,29,0.00,0,,191
2012-9-4,102,86,70,42,37,28,32,17,11,29.97,29.90,29.82,10,10,10,16,6,21,0.00,2,Rain,190
2012-9-5,93,82,71,55,45,37,39,27,15,29.97,29.90,29.86,10,10,10,20,9,29,0.00,5,Rain,196
2012-9-6,100,84,70,53,51,49,51,33,19,29.90,29.85,29.80,10,10,10,20,7,24,0.00,3,,211
2012-9-7,100,86,72,52,51,48,48,31,18,29.98,29.90,29.85,10,10,10,15,7,16,0.00,2,,155
2012-9-8,104,86,71,53,50,47,43,28,17,29.97,29.89,29.80,10,10,10,16,4,20,0.00,2,Thunderstorm,215
2012-9-9,105,88,75,54,51,43,46,28,13,29.90,29.83,29.76,10,10,10,21,5,26,0.00,0,,166
2012-9-10,100,89,78,66,55,49,55,35,18,29.87,29.80,29.71,10,10,4,25,10,34,0.11,3,Rain-Thunderstorm,165
2012-9-11,95,81,69,57,53,38,61,40,17,29.92,29.83,29.77,10,10,10,16,7,21,0.00,1,,164
2012-9-12,96,80,66,57,49,40,63,36,16,30.04,29.98,29.92,10,10,10,9,3,,0.00,0,,169
2012-9-13,98,80,64,39,30,22,38,19,7,30.11,30.05,30.01,10,10,10,15,6,18,0.00,0,,173
2012-9-14,99,78,57,35,27,21,25,15,10,30.13,30.05,29.98,10,10,10,9,4,18,0.00,0,,174
2012-9-15,98,80,62,34,29,23,29,16,8,30.10,30.03,29.95,10,10,10,9,4,,0.00,0,,180
2012-9-16,98,79,61,34,31,27,29,17,8,30.03,29.95,29.87,10,10,10,13,5,18,0.00,0,,189
2012-9-17,97,79,63,35,31,26,31,18,10,29.97,29.92,29.87,10,10,10,9,5,,0.00,0,,185
2012-9-18,97,79,61,33,32,29,31,19,11,30.02,29.96,29.91,10,10,10,9,5,,0.00,0,,196
2012-9-19,98,81,64,35,33,31,29,19,10,30.01,29.95,29.88,10,10,10,9,4,,0.00,0,,243
2012-9-20,100,80,62,36,34,32,37,20,10,29.99,29.92,29.86,10,10,10,10,4,16,0.00,1,,188
2012-9-21,99,80,62,38,35,32,34,20,11,29.95,29.88,29.82,10,10,10,10,4,,0.00,3,,201
2012-9-22,98,81,66,40,36,34,32,21,11,29.94,29.88,29.83,10,10,10,16,6,29,0.00,0,,211
2012-9-23,97,80,64,41,37,34,37,21,11,29.98,29.90,29.86,10,10,10,21,8,29,0.00,0,,237
2012-9-24,93,83,73,42,34,21,30,19,11,29.89,29.81,29.74,10,10,10,26,15,37,0.00,1,,218
2012-9-25,91,72,55,33,28,21,27,18,12,29.89,29.82,29.76,10,10,10,10,4,,0.00,0,,160
2012-9-26,93,73,55,33,31,27,33,19,12,29.88,29.84,29.79,10,10,10,10,3,,0.00,0,,144
2012-9-27,93,74,57,36,32,28,33,21,13,29.96,29.89,29.84,10,10,10,9,5,16,0.00,0,,172
2012-9-28,93,76,60,39,34,30,35,22,13,29.94,29.88,29.81,10,10,10,9,5,,0.00,0,,181
2012-9-29,95,76,57,36,33,28,36,21,11,30.02,29.96,29.90,10,10,10,9,4,,0.00,0,,116
2012-9-30,99,78,59,36,31,26,38,20,9,30.07,30.00,29.94,10,10,10,9,4,16,0.00,0,,177